createdAt,value
2023-03-23T15:58:15.706Z,1.42
2023-03-23T16:00:44.001Z,1.20
2023-03-23T16:03:14.777Z,1.38
2023-03-23T16:05:43.020Z,1.50
2023-03-23T16:08:12.161Z,1.52
2023-03-23T16:10:39.637Z,1.60
2023-03-23T16:13:07.647Z,1.67
2023-03-23T16:15:35.072Z,1.30
2023-03-23T16:18:02.468Z,1.75
2023-03-23T16:20:30.743Z,2.60
2023-03-23T16:22:58.100Z,2.13
2023-03-23T16:25:25.739Z,1.80
2023-03-23T16:27:54.508Z,3.92
2023-03-23T16:30:23.651Z,8.57
2023-03-23T16:32:51.551Z,7.93
2023-03-23T16:35:19.436Z,7.97
2023-03-23T16:37:51.540Z,8.77
2023-03-23T16:40:34.927Z,9.48
2023-03-23T16:43:02.302Z,12.93
2023-03-23T16:45:37.657Z,8.40
2023-03-23T16:48:05.465Z,7.05
2023-03-23T16:50:33.069Z,7.13
2023-03-23T16:53:00.746Z,5.72
2023-03-23T16:55:28.390Z,4.57
2023-03-23T17:00:35.404Z,5.97
2023-03-23T17:03:02.943Z,6.60
2023-03-23T17:05:30.819Z,7.07
2023-03-23T17:07:58.136Z,7.70
2023-03-23T17:10:35.790Z,7.55
2023-03-23T17:13:03.216Z,6.78
2023-03-23T17:15:30.991Z,5.88
2023-03-23T17:18:04.376Z,5.57
2023-03-23T17:20:31.860Z,6.32
2023-03-23T17:23:02.321Z,6.80
2023-03-23T17:25:32.738Z,6.57
2023-03-23T17:28:06.861Z,7.40
2023-03-23T17:30:35.459Z,6.13
2023-03-23T17:33:02.986Z,5.00
2023-03-23T17:35:30.459Z,3.72
2023-03-23T17:37:57.874Z,5.45
2023-03-23T17:40:25.738Z,4.25
2023-03-23T17:42:53.109Z,2.80
2023-03-23T17:45:20.630Z,3.42
2023-03-23T17:47:48.084Z,3.35
2023-03-23T17:50:16.084Z,3.47
2023-03-23T17:52:44.973Z,4.93
2023-03-23T17:55:12.532Z,4.97
2023-03-23T17:57:40.221Z,4.10
2023-03-23T18:00:08.850Z,3.17
2023-03-23T18:02:36.821Z,4.80
2023-03-23T18:05:04.698Z,4.20
2023-03-23T18:07:32.094Z,4.43
2023-03-23T18:10:00.324Z,3.92
2023-03-23T18:12:27.821Z,4.55
2023-03-23T18:14:58.701Z,5.72
2023-03-23T18:17:26.833Z,5.47
2023-03-23T18:19:54.402Z,4.68
2023-03-23T18:22:21.990Z,4.10
2023-03-23T18:24:49.722Z,3.92
2023-03-23T18:27:17.406Z,3.40
2023-03-23T18:29:45.319Z,5.00
2023-03-23T18:32:12.899Z,6.60
2023-03-23T18:34:43.255Z,6.10
2023-03-23T18:37:10.850Z,3.72
2023-03-23T18:39:38.545Z,4.60
2023-03-23T18:42:06.578Z,6.30
2023-03-23T18:44:34.085Z,5.53
2023-03-23T18:47:01.522Z,5.00
2023-03-23T18:49:29.904Z,4.40
2023-03-23T18:51:57.498Z,6.93
2023-03-23T18:54:24.950Z,7.68
2023-03-23T18:56:52.430Z,7.65
2023-03-23T18:59:19.864Z,8.38
2023-03-23T19:01:47.456Z,6.72
2023-03-23T19:04:14.874Z,6.20
2023-03-23T19:06:44.006Z,6.63
2023-03-23T19:09:12.346Z,6.25
2023-03-23T19:11:39.688Z,5.82
2023-03-23T19:14:07.243Z,8.27
2023-03-23T19:16:36.114Z,9.52
2023-03-23T19:19:04.426Z,5.75
2023-03-23T19:21:32.389Z,6.93
2023-03-23T19:24:00.748Z,6.25
2023-03-23T19:26:36.139Z,8.88
2023-03-23T19:31:40.314Z,5.68
2023-03-23T19:34:25.645Z,5.50
2023-03-23T19:37:14.311Z,5.18
2023-03-23T19:39:42.958Z,5.18
2023-03-23T19:42:11.121Z,4.90
2023-03-23T19:44:38.759Z,5.10
2023-03-23T19:47:07.213Z,5.28
2023-03-23T19:49:34.990Z,5.72
2023-03-23T19:52:08.923Z,7.00
2023-03-23T19:54:39.541Z,5.72
2023-03-23T19:57:07.924Z,9.63
2023-03-23T19:59:35.556Z,8.85
2023-03-23T20:02:03.638Z,8.85
2023-03-23T20:04:31.254Z,13.95
2023-03-23T20:06:59.095Z,10.85
2023-03-23T20:09:26.440Z,11.38
2023-03-23T20:11:53.874Z,11.50
2023-03-23T20:14:21.359Z,9.30
2023-03-23T20:16:48.756Z,9.02
2023-03-23T20:19:16.588Z,8.50
2023-03-23T20:21:44.959Z,7.50
2023-03-23T20:24:12.404Z,6.53
2023-03-23T20:26:41.660Z,5.80
2023-03-23T20:29:09.667Z,6.32
2023-03-23T20:31:41.879Z,7.40
2023-03-23T20:34:10.721Z,9.70
2023-03-23T20:36:40.492Z,5.50
2023-03-23T20:39:12.294Z,6.40
2023-03-23T20:41:40.425Z,5.30
2023-03-23T20:44:09.659Z,7.45
2023-03-23T20:46:37.604Z,6.20
2023-03-23T20:49:05.494Z,6.45
2023-03-23T20:51:33.506Z,5.50
2023-03-23T20:54:02.028Z,5.75
2023-03-23T20:56:29.579Z,4.72
2023-03-23T20:58:57.479Z,9.10
2023-03-23T21:01:26.259Z,9.02
2023-03-23T21:03:56.813Z,6.82
2023-03-23T21:06:28.404Z,7.30
2023-03-23T21:08:56.888Z,8.05
2023-03-23T21:11:25.529Z,7.22
2023-03-23T21:13:53.669Z,7.63
2023-03-23T21:16:23.626Z,8.07
2023-03-23T21:18:51.398Z,6.85
2023-03-23T21:21:18.940Z,7.95
2023-03-23T21:23:47.183Z,7.30
2023-03-23T21:26:18.217Z,7.60
2023-03-23T21:28:46.621Z,7.22
2023-03-23T21:31:15.030Z,7.95
2023-03-23T21:33:42.847Z,7.15
2023-03-23T21:36:10.750Z,8.18
2023-03-23T21:38:38.372Z,7.60
2023-03-23T21:41:13.239Z,6.88
2023-03-23T21:43:40.745Z,4.68
2023-03-23T21:46:09.345Z,4.07
2023-03-23T21:48:41.495Z,3.72
2023-03-23T21:53:37.053Z,3.70
2023-03-23T21:56:06.185Z,3.25
2023-03-23T21:58:34.116Z,3.60
2023-03-23T22:01:02.209Z,3.33
2023-03-23T22:03:32.776Z,3.53
2023-03-23T22:06:05.584Z,3.42
2023-03-23T22:08:33.046Z,3.92
2023-03-23T22:11:01.971Z,3.58
2023-03-23T22:13:33.253Z,4.75
2023-03-23T22:16:01.888Z,5.22
2023-03-23T22:18:29.429Z,4.68
2023-03-23T22:20:59.047Z,4.88
2023-03-23T22:23:27.064Z,4.82
2023-03-23T22:25:55.004Z,4.60
2023-03-23T22:28:22.952Z,5.07
2023-03-23T22:30:50.422Z,3.97
2023-03-23T22:33:19.919Z,4.78
2023-03-23T22:35:48.003Z,4.95
2023-03-23T22:38:15.494Z,4.82
2023-03-23T22:40:43.001Z,4.90
2023-03-23T22:43:10.749Z,4.90
2023-03-23T22:45:40.481Z,4.10
2023-03-23T22:48:08.680Z,4.30
2023-03-23T22:50:36.510Z,4.78
2023-03-23T22:53:03.892Z,4.95
2023-03-23T22:55:31.776Z,6.25
2023-03-23T22:57:59.592Z,6.45
2023-03-23T23:00:27.469Z,6.72
2023-03-23T23:02:54.927Z,6.38
2023-03-23T23:05:22.339Z,6.43
2023-03-23T23:07:49.793Z,6.30
2023-03-23T23:10:17.270Z,4.45
2023-03-23T23:12:47.705Z,5.85
2023-03-23T23:15:15.718Z,5.70
2023-03-23T23:17:43.179Z,6.15
2023-03-23T23:20:14.187Z,5.75
2023-03-23T23:22:43.674Z,4.83
2023-03-23T23:25:12.564Z,4.35
2023-03-23T23:27:40.092Z,4.22
2023-03-23T23:30:08.503Z,3.97
2023-03-23T23:32:36.437Z,3.95
2023-03-23T23:35:04.802Z,4.10
2023-03-23T23:37:32.784Z,3.38
2023-03-23T23:40:00.197Z,3.88
2023-03-23T23:42:27.746Z,3.90
2023-03-23T23:44:55.242Z,3.83
2023-03-23T23:47:22.625Z,3.75
2023-03-23T23:49:50.339Z,3.70
2023-03-23T23:52:17.695Z,3.90
2023-03-23T23:54:48.097Z,4.00
2023-03-23T23:57:21.325Z,4.05
2023-03-23T23:59:49.149Z,3.90
